Terminal Aerodrome Forecast
Issued by NWS

Home | Current Version | Previous Version | Text Only | Print | Product List | Glossary On
Versions: 1 2 3 4 5 6 7 8 9 10 11 12 13 14 15 16 17 18 19
296
FTUS43 KFGF 072320
TAFDVL
TAF
KDVL 072320Z 0800/0824 33026G36KT 3SM -SN BLSN OVC050
     FM080200 33024G30KT P6SM OVC020
     FM081500 34021G30KT P6SM SCT015
     FM082100 34018KT P6SM SCT120
     FM082200 33016KT P6SM BKN110=

USA.gov is the U.S. government's official web portal to all federal, state and local government web resources and services.